createdAt,value
2024-04-08T00:00:28.781Z,16.69
2024-04-08T00:01:28.792Z,16.66
2024-04-08T00:02:28.838Z,16.70
2024-04-08T00:03:28.771Z,16.66
2024-04-08T00:04:28.763Z,16.57
2024-04-08T00:05:28.764Z,16.37
2024-04-08T00:06:28.726Z,16.47
2024-04-08T00:07:29.683Z,16.29
2024-04-08T00:08:28.734Z,16.42
2024-04-08T00:09:29.210Z,16.37
2024-04-08T00:10:28.694Z,16.51
2024-04-08T00:11:28.743Z,16.52
2024-04-08T00:12:28.676Z,16.52
2024-04-08T00:13:28.659Z,16.57
2024-04-08T00:14:28.659Z,16.59
2024-04-08T00:15:28.626Z,16.54
2024-04-08T00:16:28.641Z,16.60
2024-04-08T00:17:28.650Z,16.45
2024-04-08T00:18:28.623Z,16.32
2024-04-08T00:19:28.581Z,16.32
2024-04-08T00:20:28.611Z,16.27
2024-04-08T00:21:28.574Z,16.22
2024-04-08T00:22:28.541Z,16.08
2024-04-08T00:23:28.582Z,16.08
2024-04-08T00:24:28.526Z,15.88
2024-04-08T00:25:28.520Z,15.73
2024-04-08T00:26:28.524Z,15.67
2024-04-08T00:27:28.490Z,15.71
2024-04-08T00:28:28.521Z,15.73
2024-04-08T00:29:28.544Z,15.56
2024-04-08T00:30:28.450Z,15.52
2024-04-08T00:31:28.450Z,15.37
2024-04-08T00:32:28.526Z,15.46
2024-04-08T00:33:28.450Z,15.38
2024-04-08T00:34:28.434Z,15.52
2024-04-08T00:35:28.425Z,15.59
2024-04-08T00:36:28.396Z,15.56
2024-04-08T00:37:28.383Z,15.49
2024-04-08T00:38:28.455Z,15.46
2024-04-08T00:39:28.388Z,15.43
2024-04-08T00:40:28.356Z,15.40
2024-04-08T00:41:28.379Z,15.41
2024-04-08T00:42:28.356Z,15.40
2024-04-08T00:43:28.321Z,15.46
2024-04-08T00:44:28.366Z,15.51
2024-04-08T00:45:28.307Z,15.49
2024-04-08T00:46:28.292Z,15.48
2024-04-08T00:47:28.358Z,15.40
2024-04-08T00:48:28.288Z,15.44
2024-04-08T00:49:28.265Z,15.53
2024-04-08T00:50:28.274Z,15.70
2024-04-08T00:51:28.243Z,15.70
2024-04-08T00:52:28.384Z,15.80
2024-04-08T00:53:28.250Z,15.93
2024-04-08T00:54:28.199Z,16.04
2024-04-08T00:55:28.228Z,16.01
2024-04-08T00:56:28.204Z,16.07
2024-04-08T00:57:28.182Z,16.17
2024-04-08T00:58:28.158Z,16.11
2024-04-08T00:59:28.166Z,16.10
2024-04-08T01:00:28.155Z,16.22
2024-04-08T01:01:28.143Z,16.25
2024-04-08T01:02:28.136Z,16.23
2024-04-08T01:03:29.096Z,16.22
2024-04-08T01:04:28.087Z,16.04
2024-04-08T01:05:28.088Z,16.16
2024-04-08T01:06:28.067Z,16.16
2024-04-08T01:07:28.070Z,16.08
2024-04-08T01:08:28.106Z,16.14
2024-04-08T01:09:28.038Z,16.01
2024-04-08T01:10:28.026Z,16.04
2024-04-08T01:11:28.048Z,15.95
2024-04-08T01:12:28.212Z,15.86
2024-04-08T01:13:29.050Z,15.89
2024-04-08T01:14:28.018Z,15.84
2024-04-08T01:15:27.966Z,16.06
2024-04-08T01:16:28.224Z,16.04
2024-04-08T01:17:27.992Z,16.06
2024-04-08T01:18:27.935Z,16.22
2024-04-08T01:19:27.921Z,16.10
2024-04-08T01:20:27.924Z,16.13
2024-04-08T01:21:27.908Z,16.17
2024-04-08T01:22:27.919Z,16.16
2024-04-08T01:23:27.875Z,16.10
2024-04-08T01:24:27.853Z,16.13
2024-04-08T01:25:27.844Z,16.10
2024-04-08T01:26:27.864Z,15.88
2024-04-08T01:27:27.874Z,15.96
2024-04-08T01:28:27.808Z,15.98
2024-04-08T01:29:27.797Z,16.14
2024-04-08T01:30:27.822Z,16.22
2024-04-08T01:31:27.786Z,16.23
2024-04-08T01:32:27.771Z,16.30
2024-04-08T01:33:27.776Z,16.37
2024-04-08T01:34:27.746Z,16.27
2024-04-08T01:35:27.766Z,16.33
2024-04-08T01:36:27.738Z,16.29
2024-04-08T01:37:27.748Z,16.22
2024-04-08T01:38:27.731Z,16.26
2024-04-08T01:39:27.703Z,16.22
2024-04-08T01:40:27.686Z,16.10
2024-04-08T01:41:27.721Z,15.96
2024-04-08T01:42:27.676Z,15.98
2024-04-08T01:43:27.640Z,15.93
2024-04-08T01:44:27.659Z,15.93
2024-04-08T01:45:27.638Z,16.06
2024-04-08T01:46:27.643Z,15.93
2024-04-08T01:47:27.683Z,15.91
2024-04-08T01:48:27.579Z,15.92
2024-04-08T01:49:28.610Z,15.99
2024-04-08T01:50:27.611Z,15.92
2024-04-08T01:51:27.552Z,15.96
2024-04-08T01:52:27.613Z,16.08
2024-04-08T01:53:27.603Z,16.04
2024-04-08T01:54:27.550Z,15.98
2024-04-08T01:55:27.522Z,15.98
2024-04-08T01:56:27.595Z,15.99
2024-04-08T01:57:27.488Z,16.07
2024-04-08T01:58:27.496Z,16.07
2024-04-08T01:59:27.532Z,16.26
2024-04-08T02:00:27.478Z,16.29
2024-04-08T02:01:27.452Z,16.40
2024-04-08T02:02:27.507Z,16.36
2024-04-08T02:03:27.444Z,16.44
2024-04-08T02:04:27.435Z,16.47
2024-04-08T02:05:27.426Z,16.55
2024-04-08T02:06:27.390Z,16.57
2024-04-08T02:07:27.414Z,16.55
2024-04-08T02:08:27.381Z,16.54
2024-04-08T02:09:27.393Z,16.55
2024-04-08T02:10:28.211Z,16.50
2024-04-08T02:11:27.358Z,16.50
2024-04-08T02:12:27.397Z,16.54
2024-04-08T02:13:27.315Z,16.48
2024-04-08T02:14:27.309Z,16.41
2024-04-08T02:15:27.297Z,16.44
2024-04-08T02:16:27.285Z,16.40
2024-04-08T02:17:27.306Z,16.41
2024-04-08T02:18:28.185Z,16.45
2024-04-08T02:19:27.246Z,16.37
2024-04-08T02:20:27.228Z,16.50
2024-04-08T02:21:27.236Z,16.42
2024-04-08T02:22:27.216Z,16.33
2024-04-08T02:23:27.241Z,16.47
2024-04-08T02:24:27.241Z,16.41
2024-04-08T02:25:27.205Z,16.33
2024-04-08T02:26:27.168Z,16.30
2024-04-08T02:27:27.153Z,16.26
2024-04-08T02:28:27.165Z,16.41
2024-04-08T02:29:27.184Z,16.22
2024-04-08T02:30:27.137Z,16.29
2024-04-08T02:31:27.140Z,16.34
2024-04-08T02:32:27.147Z,16.32
2024-04-08T02:33:27.108Z,16.29
2024-04-08T02:34:27.113Z,16.32
2024-04-08T02:35:27.081Z,16.26
2024-04-08T02:36:27.058Z,16.23
2024-04-08T02:37:27.056Z,16.26
2024-04-08T02:38:27.048Z,16.22
2024-04-08T02:39:27.052Z,16.22
2024-04-08T02:40:27.033Z,16.17
2024-04-08T02:41:27.018Z,16.04
2024-04-08T02:42:27.001Z,16.13
2024-04-08T02:43:27.078Z,16.16
2024-04-08T02:44:26.998Z,16.10
2024-04-08T02:45:26.973Z,16.10
2024-04-08T02:46:26.958Z,16.06
2024-04-08T02:47:26.983Z,15.96
2024-04-08T02:48:26.937Z,15.89
2024-04-08T02:49:26.946Z,15.89
2024-04-08T02:50:26.957Z,15.77
2024-04-08T02:51:26.936Z,15.68
2024-04-08T02:52:26.882Z,15.73
2024-04-08T02:53:26.889Z,15.88
2024-04-08T02:54:26.869Z,15.91
2024-04-08T02:55:26.864Z,16.01
2024-04-08T02:56:26.870Z,15.96
2024-04-08T02:57:26.856Z,15.95
2024-04-08T02:58:26.827Z,15.95
2024-04-08T02:59:26.863Z,15.89
2024-04-08T03:00:26.799Z,15.93
2024-04-08T03:01:26.870Z,15.86
2024-04-08T03:02:26.774Z,15.85
2024-04-08T03:03:26.777Z,15.68
2024-04-08T03:04:26.764Z,15.59
2024-04-08T03:05:26.740Z,15.71
2024-04-08T03:06:26.776Z,15.73
2024-04-08T03:07:26.713Z,15.67
2024-04-08T03:08:26.755Z,15.68
2024-04-08T03:09:26.759Z,15.73
2024-04-08T03:10:26.715Z,15.70
2024-04-08T03:11:26.741Z,15.68
2024-04-08T03:12:26.781Z,15.73
2024-04-08T03:13:26.667Z,15.76
2024-04-08T03:14:26.671Z,15.70
2024-04-08T03:15:26.637Z,15.67
2024-04-08T03:16:26.630Z,15.44
2024-04-08T03:17:27.182Z,15.52
2024-04-08T03:18:26.604Z,15.52
2024-04-08T03:19:26.614Z,15.43
2024-04-08T03:20:26.594Z,15.40
2024-04-08T03:21:26.573Z,15.43
2024-04-08T03:22:26.568Z,15.43
2024-04-08T03:23:26.583Z,15.48
2024-04-08T03:24:26.532Z,15.43
2024-04-08T03:25:26.550Z,15.41
2024-04-08T03:26:26.504Z,15.40
2024-04-08T03:27:26.516Z,15.41
2024-04-08T03:28:26.500Z,15.41
2024-04-08T03:29:26.523Z,15.48
2024-04-08T03:30:26.540Z,15.49
2024-04-08T03:31:26.466Z,15.49
2024-04-08T03:32:26.482Z,15.44
2024-04-08T03:33:26.452Z,15.35
2024-04-08T03:34:26.434Z,15.40
2024-04-08T03:35:26.416Z,15.53
2024-04-08T03:36:26.426Z,15.49
2024-04-08T03:37:26.422Z,15.52
2024-04-08T03:38:26.424Z,15.51
2024-04-08T03:39:26.383Z,15.52
2024-04-08T03:40:26.380Z,15.49
2024-04-08T03:41:26.343Z,15.53
2024-04-08T03:42:26.346Z,15.64
2024-04-08T03:43:27.349Z,15.58
2024-04-08T03:44:26.315Z,15.53
2024-04-08T03:45:26.345Z,15.52
2024-04-08T03:46:26.292Z,15.43
2024-04-08T03:47:26.338Z,14.98
2024-04-08T03:48:26.294Z,14.82
2024-04-08T03:49:26.276Z,14.63
2024-04-08T03:50:27.194Z,14.60
2024-04-08T03:51:28.234Z,14.56
2024-04-08T03:52:27.234Z,14.60
2024-04-08T03:53:26.202Z,14.74
2024-04-08T03:54:26.259Z,14.74
2024-04-08T03:55:26.183Z,14.82
2024-04-08T03:56:26.160Z,14.91
2024-04-08T03:57:26.178Z,14.83
2024-04-08T03:58:26.153Z,14.86
2024-04-08T03:59:26.166Z,14.94
2024-04-08T04:00:26.122Z,14.80
2024-04-08T04:01:26.697Z,14.83
2024-04-08T04:02:26.090Z,14.82
2024-04-08T04:03:26.094Z,14.87
2024-04-08T04:04:26.075Z,14.66
2024-04-08T04:05:26.719Z,14.44
2024-04-08T04:06:26.165Z,14.45
2024-04-08T04:07:26.042Z,14.53
2024-04-08T04:08:26.054Z,14.57
2024-04-08T04:09:26.697Z,14.64
2024-04-08T04:10:26.709Z,14.66
2024-04-08T04:11:26.694Z,14.69
2024-04-08T04:12:27.222Z,14.75
2024-04-08T04:13:26.653Z,14.74
2024-04-08T04:14:26.705Z,14.66
2024-04-08T04:15:25.971Z,14.67
2024-04-08T04:16:25.986Z,14.60
2024-04-08T04:17:26.012Z,14.61
2024-04-08T04:18:25.904Z,14.69
2024-04-08T04:19:25.968Z,14.56
2024-04-08T04:20:26.674Z,14.66
2024-04-08T04:21:26.662Z,14.57
2024-04-08T04:22:26.652Z,14.63
2024-04-08T04:23:25.854Z,14.49
2024-04-08T04:24:26.666Z,14.54
2024-04-08T04:25:25.940Z,14.59
2024-04-08T04:26:26.230Z,14.46
2024-04-08T04:27:26.678Z,14.42
2024-04-08T04:28:26.704Z,14.46
2024-04-08T04:29:25.790Z,14.49
2024-04-08T04:30:25.808Z,14.59
2024-04-08T04:31:25.782Z,14.48
2024-04-08T04:32:25.760Z,14.49
2024-04-08T04:33:25.758Z,14.52
2024-04-08T04:34:26.679Z,14.48
2024-04-08T04:35:25.873Z,14.48
2024-04-08T04:36:26.708Z,14.45
2024-04-08T04:37:26.665Z,14.48
2024-04-08T04:38:25.702Z,14.42
2024-04-08T04:39:25.721Z,14.46
2024-04-08T04:40:25.660Z,14.56
2024-04-08T04:41:25.640Z,14.57
2024-04-08T04:42:25.650Z,14.57
2024-04-08T04:43:26.151Z,14.60
2024-04-08T04:44:25.614Z,14.63
2024-04-08T04:45:25.632Z,14.63
2024-04-08T04:46:25.638Z,14.67
2024-04-08T04:47:25.686Z,14.67
2024-04-08T04:48:25.645Z,14.79
2024-04-08T04:49:26.320Z,14.63
2024-04-08T04:50:25.544Z,14.35
2024-04-08T04:51:25.574Z,14.31
2024-04-08T04:52:25.544Z,14.35
2024-04-08T04:53:25.537Z,14.31
2024-04-08T04:54:27.301Z,14.31
2024-04-08T04:55:25.503Z,14.30
2024-04-08T04:56:25.501Z,14.31
2024-04-08T04:57:25.464Z,14.44
2024-04-08T04:58:25.524Z,14.48
2024-04-08T04:59:25.438Z,14.36
2024-04-08T05:00:25.430Z,14.42
2024-04-08T05:01:25.421Z,14.41
2024-04-08T05:02:25.425Z,14.44
2024-04-08T05:03:25.430Z,14.39
2024-04-08T05:04:25.407Z,14.49
2024-04-08T05:05:25.412Z,14.49
2024-04-08T05:06:25.384Z,14.45
2024-04-08T05:07:25.384Z,14.46
2024-04-08T05:08:25.355Z,14.45
2024-04-08T05:09:25.326Z,14.49
2024-04-08T05:10:25.338Z,14.52
2024-04-08T05:11:25.307Z,14.59
2024-04-08T05:12:25.294Z,14.67
2024-04-08T05:13:25.314Z,14.63
2024-04-08T05:14:25.270Z,14.53
2024-04-08T05:15:25.262Z,14.53
2024-04-08T05:16:25.230Z,14.54
2024-04-08T05:17:25.238Z,14.66
2024-04-08T05:18:25.208Z,14.57
2024-04-08T05:19:26.091Z,14.64
2024-04-08T05:20:25.214Z,14.69
2024-04-08T05:21:25.188Z,14.64
2024-04-08T05:22:25.154Z,14.78
2024-04-08T05:23:25.165Z,14.75
2024-04-08T05:24:25.175Z,14.75
2024-04-08T05:25:25.158Z,14.75
2024-04-08T05:26:25.201Z,14.75
2024-04-08T05:27:25.108Z,14.71
2024-04-08T05:28:25.101Z,14.78
2024-04-08T05:29:25.100Z,14.91
2024-04-08T05:30:25.088Z,14.91
2024-04-08T05:31:25.166Z,15.00
2024-04-08T05:32:25.050Z,15.15
2024-04-08T05:33:25.049Z,15.25
2024-04-08T05:34:25.021Z,15.28
2024-04-08T05:35:25.041Z,15.46
2024-04-08T05:36:24.985Z,15.59
2024-04-08T05:37:25.600Z,15.62
2024-04-08T05:38:24.975Z,15.66
2024-04-08T05:39:25.619Z,15.80
2024-04-08T05:40:24.966Z,16.03
2024-04-08T05:41:24.934Z,16.06
2024-04-08T05:42:24.935Z,16.03
2024-04-08T05:43:24.916Z,16.07
2024-04-08T05:44:25.063Z,16.17
2024-04-08T05:45:25.178Z,16.37
2024-04-08T05:46:24.877Z,16.37
2024-04-08T05:47:25.615Z,16.42
2024-04-08T05:48:24.867Z,16.60
2024-04-08T05:49:25.084Z,16.78
2024-04-08T05:50:24.843Z,16.72
2024-04-08T05:51:24.902Z,16.67
2024-04-08T05:52:24.817Z,16.57
2024-04-08T05:53:24.805Z,16.41
2024-04-08T05:54:24.815Z,16.47
2024-04-08T05:55:24.777Z,16.72
2024-04-08T05:56:25.211Z,16.73
2024-04-08T05:57:24.762Z,16.70
2024-04-08T05:58:24.761Z,16.60
2024-04-08T05:59:24.731Z,16.48
2024-04-08T06:00:25.657Z,16.18
2024-04-08T06:01:24.903Z,16.30
2024-04-08T06:02:24.740Z,16.60
2024-04-08T06:03:24.830Z,16.96
2024-04-08T06:04:24.676Z,17.30
2024-04-08T06:05:24.669Z,17.49
2024-04-08T06:06:24.673Z,17.76
2024-04-08T06:07:24.639Z,17.95
2024-04-08T06:08:24.737Z,17.95
2024-04-08T06:09:24.640Z,17.46
2024-04-08T06:10:24.733Z,17.17
2024-04-08T06:11:24.614Z,17.55
2024-04-08T06:12:24.657Z,18.01
2024-04-08T06:13:24.697Z,18.32
2024-04-08T06:14:24.563Z,18.79
2024-04-08T06:15:24.591Z,19.06
2024-04-08T06:16:24.541Z,19.13
2024-04-08T06:17:24.554Z,19.27
2024-04-08T06:18:24.573Z,19.34
2024-04-08T06:19:24.522Z,19.52
2024-04-08T06:20:24.714Z,19.78
2024-04-08T06:21:24.510Z,20.02
2024-04-08T06:22:24.498Z,20.27
2024-04-08T06:23:24.492Z,20.54
2024-04-08T06:24:24.459Z,20.76
2024-04-08T06:25:24.446Z,20.97
2024-04-08T06:26:24.465Z,20.97
2024-04-08T06:27:24.439Z,21.05
2024-04-08T06:28:24.432Z,21.12
2024-04-08T06:29:24.423Z,21.13
2024-04-08T06:30:24.418Z,21.06
2024-04-08T06:31:24.396Z,21.08
2024-04-08T06:32:24.414Z,20.98
2024-04-08T06:33:25.651Z,21.26
2024-04-08T06:34:24.452Z,21.34
2024-04-08T06:35:25.171Z,21.64
2024-04-08T06:36:24.310Z,21.90
2024-04-08T06:37:24.320Z,21.94
2024-04-08T06:38:24.303Z,22.08
2024-04-08T06:39:24.299Z,22.11
2024-04-08T06:40:24.285Z,22.14
2024-04-08T06:41:24.278Z,22.19
2024-04-08T06:42:24.272Z,22.15
2024-04-08T06:43:24.259Z,22.04
2024-04-08T06:44:25.594Z,21.98
2024-04-08T06:45:24.232Z,22.11
2024-04-08T06:46:24.218Z,22.19
2024-04-08T06:47:24.241Z,22.38
2024-04-08T06:48:24.233Z,22.41
2024-04-08T06:49:24.232Z,22.44
2024-04-08T06:50:24.177Z,22.36
2024-04-08T06:51:24.170Z,22.42
2024-04-08T06:52:24.153Z,22.57
2024-04-08T06:53:24.162Z,22.78
2024-04-08T06:54:24.143Z,22.97
2024-04-08T06:55:24.161Z,23.15
2024-04-08T06:56:24.114Z,23.38
2024-04-08T06:57:24.093Z,23.52
2024-04-08T06:58:24.085Z,23.52
2024-04-08T06:59:24.077Z,23.57
2024-04-08T07:00:24.075Z,23.77
2024-04-08T07:01:24.060Z,24.06
2024-04-08T07:02:24.060Z,24.18
2024-04-08T07:03:24.033Z,24.48
2024-04-08T07:04:24.023Z,24.70
2024-04-08T07:05:24.040Z,24.53
2024-04-08T07:06:24.047Z,24.75
2024-04-08T07:07:23.988Z,24.84
2024-04-08T07:08:23.972Z,25.02
2024-04-08T07:09:23.963Z,25.22
2024-04-08T07:10:23.954Z,25.05
2024-04-08T07:11:23.938Z,25.12
2024-04-08T07:12:23.933Z,25.26
2024-04-08T07:13:23.919Z,25.66
2024-04-08T07:14:23.904Z,25.98
2024-04-08T07:15:23.900Z,26.13
2024-04-08T07:16:23.892Z,25.01
2024-04-08T07:17:23.903Z,24.30
2024-04-08T07:18:23.929Z,24.33
2024-04-08T07:19:23.852Z,24.55
2024-04-08T07:20:23.854Z,24.82
2024-04-08T07:21:23.860Z,25.36
2024-04-08T07:22:24.009Z,25.53
2024-04-08T07:23:23.832Z,26.03
2024-04-08T07:24:23.842Z,25.94
2024-04-08T07:25:23.808Z,25.48
2024-04-08T07:26:23.785Z,23.44
2024-04-08T07:27:23.881Z,21.56
2024-04-08T07:28:23.778Z,21.42
2024-04-08T07:29:23.760Z,22.15
2024-04-08T07:30:23.742Z,22.86
2024-04-08T07:31:23.773Z,23.69
2024-04-08T07:32:23.724Z,22.75
2024-04-08T07:33:23.754Z,22.41
2024-04-08T07:34:23.694Z,21.37
2024-04-08T07:35:26.389Z,21.55
2024-04-08T07:36:24.700Z,21.26
2024-04-08T07:37:23.674Z,21.05
2024-04-08T07:38:23.662Z,21.28
2024-04-08T07:39:27.310Z,20.97
2024-04-08T07:40:25.655Z,21.77
2024-04-08T07:41:24.177Z,22.74
2024-04-08T07:42:23.685Z,23.77
2024-04-08T07:43:23.609Z,24.30
2024-04-08T07:44:23.593Z,24.93
2024-04-08T07:45:23.592Z,24.89
2024-04-08T07:46:23.595Z,24.63
2024-04-08T07:47:23.603Z,24.59
2024-04-08T07:48:23.590Z,24.86
2024-04-08T07:49:23.552Z,24.18
2024-04-08T07:50:23.542Z,23.35
2024-04-08T07:51:23.612Z,22.64
2024-04-08T07:52:23.567Z,22.04
2024-04-08T07:53:23.536Z,22.82
2024-04-08T07:54:23.497Z,22.56
2024-04-08T07:55:23.494Z,22.42
2024-04-08T07:56:23.502Z,23.14
2024-04-08T07:57:23.491Z,23.53
2024-04-08T07:58:23.447Z,23.90
2024-04-08T07:59:23.443Z,24.04
2024-04-08T08:00:23.456Z,24.15
2024-04-08T08:01:24.171Z,23.81
2024-04-08T08:02:23.431Z,23.63
2024-04-08T08:03:23.408Z,24.31
2024-04-08T08:04:23.406Z,24.41
2024-04-08T08:05:23.376Z,24.02
2024-04-08T08:06:23.425Z,23.01
2024-04-08T08:07:23.391Z,22.81
2024-04-08T08:08:23.372Z,22.91
2024-04-08T08:09:23.339Z,24.09
2024-04-08T08:10:23.346Z,24.09
2024-04-08T08:11:23.361Z,23.81
2024-04-08T08:12:23.343Z,22.97
2024-04-08T08:13:23.310Z,23.78
2024-04-08T08:14:23.321Z,23.41
2024-04-08T08:15:23.295Z,22.82
2024-04-08T08:16:23.284Z,22.75
2024-04-08T08:17:23.303Z,22.96
2024-04-08T08:18:23.451Z,23.06
2024-04-08T08:19:23.246Z,21.96
2024-04-08T08:20:23.243Z,21.93
2024-04-08T08:21:23.245Z,22.24
2024-04-08T08:22:23.260Z,22.97
2024-04-08T08:23:23.216Z,22.67
2024-04-08T08:24:23.189Z,22.31
2024-04-08T08:25:23.192Z,22.35
2024-04-08T08:26:23.249Z,23.19
2024-04-08T08:27:23.222Z,23.26
2024-04-08T08:28:23.173Z,23.92
2024-04-08T08:29:23.188Z,23.89
2024-04-08T08:30:23.172Z,23.56
2024-04-08T08:31:23.768Z,23.84
2024-04-08T08:32:23.134Z,25.05
2024-04-08T08:33:23.122Z,25.63
2024-04-08T08:34:23.141Z,24.51
2024-04-08T08:35:23.088Z,23.25
2024-04-08T08:36:23.069Z,22.86
2024-04-08T08:37:23.093Z,22.72
2024-04-08T08:38:23.073Z,23.52
2024-04-08T08:39:23.043Z,24.24
2024-04-08T08:40:23.062Z,25.20
2024-04-08T08:41:23.026Z,26.11
2024-04-08T08:42:23.034Z,26.73
2024-04-08T08:43:23.026Z,26.90
2024-04-08T08:44:22.994Z,27.11
2024-04-08T08:45:22.979Z,26.06
2024-04-08T08:46:22.996Z,25.41
2024-04-08T08:47:23.054Z,25.81
2024-04-08T08:48:23.157Z,26.34
2024-04-08T08:49:23.019Z,26.65
2024-04-08T08:50:22.935Z,26.64
2024-04-08T08:51:22.934Z,26.46
2024-04-08T08:52:22.943Z,26.72
2024-04-08T08:53:22.981Z,26.72
2024-04-08T08:54:22.910Z,26.84
2024-04-08T08:55:22.899Z,26.16
2024-04-08T08:56:22.894Z,26.35
2024-04-08T08:57:22.937Z,26.64
2024-04-08T08:58:22.934Z,26.71
2024-04-08T08:59:22.889Z,25.89
2024-04-08T09:00:22.836Z,25.74
2024-04-08T09:01:22.837Z,25.23
2024-04-08T09:02:22.830Z,24.79
2024-04-08T09:03:22.846Z,24.77
2024-04-08T09:04:22.818Z,24.89
2024-04-08T09:05:22.811Z,25.36
2024-04-08T09:06:22.806Z,25.86
2024-04-08T09:07:22.776Z,25.69
2024-04-08T09:08:22.802Z,25.46
2024-04-08T09:09:22.787Z,25.79
2024-04-08T09:10:23.748Z,26.01
2024-04-08T09:11:22.798Z,26.11
2024-04-08T09:12:22.731Z,26.34
2024-04-08T09:13:22.741Z,26.60
2024-04-08T09:14:22.718Z,26.73
2024-04-08T09:15:22.724Z,26.60
2024-04-08T09:16:22.684Z,26.31
2024-04-08T09:17:22.677Z,25.94
2024-04-08T09:18:23.053Z,25.97
2024-04-08T09:19:22.688Z,26.34
2024-04-08T09:20:22.666Z,25.74
2024-04-08T09:21:22.643Z,25.75
2024-04-08T09:22:22.649Z,26.00
2024-04-08T09:23:22.628Z,26.03
2024-04-08T09:24:22.612Z,26.34
2024-04-08T09:25:22.592Z,26.91
2024-04-08T09:26:22.584Z,26.97
2024-04-08T09:27:23.660Z,27.05
2024-04-08T09:28:22.606Z,27.28
2024-04-08T09:29:22.584Z,27.24
2024-04-08T09:30:22.741Z,26.73
2024-04-08T09:31:22.527Z,27.09
2024-04-08T09:32:22.545Z,27.66
2024-04-08T09:33:22.702Z,27.58
2024-04-08T09:34:22.519Z,27.38
2024-04-08T09:35:22.559Z,27.01
2024-04-08T09:36:22.493Z,26.79
2024-04-08T09:37:22.494Z,26.66
2024-04-08T09:38:22.481Z,26.98
2024-04-08T09:39:22.484Z,26.83
2024-04-08T09:40:22.487Z,27.09
2024-04-08T09:41:22.570Z,26.64
2024-04-08T09:42:22.439Z,26.81
2024-04-08T09:43:22.501Z,27.24
2024-04-08T09:44:22.517Z,27.46
2024-04-08T09:45:22.635Z,27.45
2024-04-08T09:46:22.397Z,27.76
2024-04-08T09:47:22.529Z,27.93
2024-04-08T09:48:22.623Z,28.14
2024-04-08T09:49:24.647Z,27.93
2024-04-08T09:50:22.375Z,27.49
2024-04-08T09:51:22.337Z,27.16
2024-04-08T09:52:22.340Z,26.86
2024-04-08T09:53:22.376Z,27.46
2024-04-08T09:54:22.318Z,27.50
2024-04-08T09:55:22.297Z,27.38
2024-04-08T09:56:22.295Z,27.31
2024-04-08T09:57:22.284Z,27.20
2024-04-08T09:58:22.319Z,26.59
2024-04-08T09:59:22.306Z,26.42
2024-04-08T10:00:22.372Z,26.46
2024-04-08T10:01:22.231Z,26.94
2024-04-08T10:02:22.243Z,27.63
2024-04-08T10:03:22.215Z,27.33
2024-04-08T10:04:22.252Z,27.77
2024-04-08T10:05:22.253Z,27.93
2024-04-08T10:06:22.206Z,27.93
2024-04-08T10:07:22.217Z,27.90
2024-04-08T10:08:22.776Z,27.34
2024-04-08T10:09:22.212Z,27.08
2024-04-08T10:10:22.171Z,25.86
2024-04-08T10:11:22.268Z,25.79
2024-04-08T10:12:22.228Z,25.81
2024-04-08T10:13:22.118Z,26.54
2024-04-08T10:14:22.861Z,26.75
2024-04-08T10:15:22.169Z,27.16
2024-04-08T10:16:22.100Z,27.49
2024-04-08T10:17:22.164Z,27.62
2024-04-08T10:18:22.155Z,27.42
2024-04-08T10:19:22.141Z,27.55
2024-04-08T10:20:22.080Z,27.74
2024-04-08T10:21:22.043Z,28.23
2024-04-08T10:22:22.046Z,28.25
2024-04-08T10:23:22.046Z,28.03
2024-04-08T10:24:22.383Z,27.77
2024-04-08T10:25:23.921Z,27.90
2024-04-08T10:26:23.036Z,27.88
2024-04-08T10:27:22.028Z,27.88
2024-04-08T10:28:22.019Z,27.77
2024-04-08T10:29:21.983Z,27.91
2024-04-08T10:30:21.983Z,27.90
2024-04-08T10:31:21.967Z,27.90
2024-04-08T10:32:21.970Z,27.50
2024-04-08T10:33:21.997Z,27.59
2024-04-08T10:34:21.934Z,27.27
2024-04-08T10:35:21.905Z,27.20
2024-04-08T10:36:21.930Z,27.35
2024-04-08T10:37:23.672Z,27.20
2024-04-08T10:38:21.881Z,27.65
2024-04-08T10:39:22.060Z,27.84
2024-04-08T10:40:21.860Z,28.05
2024-04-08T10:41:21.880Z,26.20
2024-04-08T10:42:21.892Z,26.08
2024-04-08T10:43:21.828Z,26.87
2024-04-08T10:44:21.806Z,27.30
2024-04-08T10:45:21.821Z,27.68
2024-04-08T10:46:21.815Z,27.96
2024-04-08T10:47:21.856Z,28.08
2024-04-08T10:48:22.090Z,28.38
2024-04-08T10:49:21.798Z,27.28
2024-04-08T10:50:21.765Z,27.52
2024-04-08T10:51:22.718Z,27.78
2024-04-08T10:52:21.750Z,27.84
2024-04-08T10:53:21.756Z,27.84
2024-04-08T10:54:21.712Z,27.77
2024-04-08T10:55:21.747Z,27.69
2024-04-08T10:56:21.752Z,27.77
2024-04-08T10:57:21.707Z,27.88
2024-04-08T10:58:21.697Z,28.40
2024-04-08T10:59:21.697Z,28.64
2024-04-08T11:00:21.712Z,28.92
2024-04-08T11:01:21.697Z,28.65
2024-04-08T11:02:21.711Z,28.72
2024-04-08T11:03:21.644Z,28.92
2024-04-08T11:04:22.648Z,28.97
2024-04-08T11:05:21.620Z,28.88
2024-04-08T11:06:23.180Z,28.60
2024-04-08T11:07:21.639Z,28.43
2024-04-08T11:08:21.605Z,28.30
2024-04-08T11:09:21.620Z,28.33
2024-04-08T11:10:21.568Z,28.25
2024-04-08T11:11:21.742Z,27.78
2024-04-08T11:12:21.833Z,27.33
2024-04-08T11:13:21.652Z,27.61
2024-04-08T11:14:21.550Z,27.74
2024-04-08T11:15:21.610Z,27.55
2024-04-08T11:16:21.520Z,27.62
2024-04-08T11:17:21.484Z,27.65
2024-04-08T11:18:22.168Z,27.86
2024-04-08T11:19:21.489Z,28.15
2024-04-08T11:20:21.474Z,28.06
2024-04-08T11:21:21.517Z,27.68
2024-04-08T11:22:21.616Z,27.35
2024-04-08T11:23:22.077Z,27.49
2024-04-08T11:24:21.470Z,27.65
2024-04-08T11:25:21.417Z,27.77
2024-04-08T11:26:21.437Z,27.76
2024-04-08T11:27:21.473Z,27.48
2024-04-08T11:28:21.430Z,27.31
2024-04-08T11:29:21.379Z,27.08
2024-04-08T11:30:21.503Z,27.16
2024-04-08T11:31:21.370Z,27.30
2024-04-08T11:32:21.359Z,27.48
2024-04-08T11:33:21.503Z,27.81
2024-04-08T11:34:21.344Z,27.91
2024-04-08T11:35:21.336Z,27.80
2024-04-08T11:36:21.391Z,28.03
2024-04-08T11:37:21.295Z,28.28
2024-04-08T11:38:30.539Z,28.36
2024-04-08T11:39:23.360Z,28.28
2024-04-08T11:40:21.271Z,28.35
2024-04-08T11:41:22.300Z,28.06
2024-04-08T11:42:21.613Z,28.01
2024-04-08T11:43:21.331Z,28.20
2024-04-08T11:44:21.290Z,27.40
2024-04-08T11:45:21.432Z,25.82
2024-04-08T11:46:21.339Z,25.71
2024-04-08T11:47:21.261Z,25.69
2024-04-08T11:48:21.433Z,26.08
2024-04-08T11:49:21.221Z,26.39
2024-04-08T11:50:21.207Z,26.03
2024-04-08T11:51:21.257Z,26.03
2024-04-08T11:52:21.170Z,26.11
2024-04-08T11:53:21.148Z,25.69
2024-04-08T11:54:21.157Z,25.83
2024-04-08T11:55:21.292Z,26.27
2024-04-08T11:56:21.123Z,26.35
2024-04-08T11:57:21.157Z,26.41
2024-04-08T11:58:21.098Z,26.42
2024-04-08T11:59:21.106Z,26.49
2024-04-08T12:00:21.505Z,26.54
2024-04-08T12:01:22.084Z,26.60
2024-04-08T12:02:21.095Z,26.72
2024-04-08T12:03:21.080Z,26.68
2024-04-08T12:04:21.069Z,26.53
2024-04-08T12:05:21.054Z,26.38
2024-04-08T12:06:21.105Z,26.32
2024-04-08T12:07:21.004Z,26.50
2024-04-08T12:08:21.030Z,26.75
2024-04-08T12:09:21.061Z,26.73
2024-04-08T12:10:21.034Z,26.83
2024-04-08T12:11:21.019Z,26.86
2024-04-08T12:12:21.043Z,27.09
2024-04-08T12:13:20.959Z,26.69
2024-04-08T12:14:20.971Z,26.87
2024-04-08T12:15:21.011Z,26.98
2024-04-08T12:16:20.928Z,26.94
2024-04-08T12:17:20.911Z,26.87
2024-04-08T12:18:21.988Z,26.81
2024-04-08T12:19:21.257Z,26.46
2024-04-08T12:20:20.885Z,26.69
2024-04-08T12:21:20.905Z,26.84
2024-04-08T12:22:20.867Z,26.72
2024-04-08T12:23:20.845Z,26.73
2024-04-08T12:24:20.913Z,26.60
2024-04-08T12:25:20.825Z,26.57
2024-04-08T12:26:20.792Z,26.42
2024-04-08T12:27:20.817Z,26.42
2024-04-08T12:28:20.787Z,26.42
2024-04-08T12:29:20.831Z,26.38
2024-04-08T12:30:20.889Z,26.53
2024-04-08T12:31:20.743Z,26.19
2024-04-08T12:32:20.787Z,25.69
2024-04-08T12:33:20.864Z,25.57
2024-04-08T12:34:20.715Z,25.61
2024-04-08T12:35:20.721Z,25.81
2024-04-08T12:36:20.761Z,26.29
2024-04-08T12:37:20.699Z,26.81
2024-04-08T12:38:20.673Z,27.39
2024-04-08T12:39:20.726Z,26.57
2024-04-08T12:40:20.663Z,26.24
2024-04-08T12:41:20.638Z,25.67
2024-04-08T12:42:20.741Z,25.17
2024-04-08T12:43:20.618Z,24.93
2024-04-08T12:44:20.660Z,24.49
2024-04-08T12:45:20.667Z,24.49
2024-04-08T12:46:20.619Z,24.44
2024-04-08T12:47:20.604Z,24.37
2024-04-08T12:48:20.724Z,24.18
2024-04-08T12:49:20.632Z,24.18
2024-04-08T12:50:20.595Z,24.48
2024-04-08T12:51:20.737Z,24.46
2024-04-08T12:52:20.566Z,24.82